createdAt,value
2022-11-03T00:02:00.926Z,12.10
2022-11-03T00:04:28.011Z,16.90
2022-11-03T00:06:56.309Z,8.17
2022-11-03T00:09:24.360Z,5.23
2022-11-03T00:11:52.103Z,11.63
2022-11-03T00:14:19.425Z,5.07
2022-11-03T00:16:46.542Z,5.10
2022-11-03T00:19:16.232Z,7.00
2022-11-03T00:21:43.103Z,11.10
2022-11-03T00:24:10.091Z,8.93
2022-11-03T00:26:37.357Z,3.13
2022-11-03T00:29:13.039Z,12.43
2022-11-03T00:31:41.451Z,9.33
2022-11-03T00:34:09.052Z,9.80
2022-11-03T00:36:41.503Z,5.20
2022-11-03T00:39:08.934Z,9.43
2022-11-03T00:41:36.218Z,11.93
2022-11-03T00:44:03.023Z,5.63
2022-11-03T00:46:36.119Z,5.03
2022-11-03T00:49:04.491Z,13.00
2022-11-03T00:51:31.806Z,7.20
2022-11-03T00:54:00.623Z,6.07
2022-11-03T00:56:34.917Z,8.00
2022-11-03T00:59:03.166Z,9.13
2022-11-03T01:01:42.131Z,9.93
2022-11-03T01:04:28.454Z,15.10
2022-11-03T01:06:58.034Z,5.83
2022-11-03T01:09:38.947Z,10.30
2022-11-03T01:12:08.541Z,3.43
2022-11-03T01:14:44.360Z,5.30
2022-11-03T01:17:19.903Z,4.77
2022-11-03T01:19:47.198Z,2.93
2022-11-03T01:22:15.587Z,9.40
2022-11-03T01:24:43.176Z,6.70
2022-11-03T01:27:13.390Z,9.43
2022-11-03T01:29:40.566Z,6.57
2022-11-03T01:32:08.827Z,9.33
2022-11-03T01:34:36.481Z,5.67
2022-11-03T01:37:03.478Z,5.20
2022-11-03T01:39:30.291Z,9.80
2022-11-03T01:41:57.398Z,5.97
2022-11-03T01:44:27.927Z,8.33
2022-11-03T01:47:15.586Z,6.23
2022-11-03T01:49:55.010Z,8.93
2022-11-03T01:52:38.950Z,7.97
2022-11-03T01:55:26.484Z,10.67
2022-11-03T01:58:02.052Z,11.63
2022-11-03T02:00:28.831Z,8.10
2022-11-03T02:02:56.025Z,6.30
2022-11-03T02:05:26.203Z,7.83
2022-11-03T02:07:55.992Z,8.00
2022-11-03T02:10:24.724Z,4.70
2022-11-03T02:12:51.844Z,4.20
2022-11-03T02:15:21.755Z,8.03
2022-11-03T02:17:50.896Z,13.93
2022-11-03T02:20:24.860Z,8.70
2022-11-03T02:22:51.576Z,7.17
2022-11-03T02:25:42.339Z,10.07
2022-11-03T02:28:10.323Z,5.50
2022-11-03T02:30:56.036Z,12.20
2022-11-03T02:34:01.440Z,8.97
2022-11-03T02:36:48.971Z,11.87
2022-11-03T02:39:22.712Z,11.52
2022-11-03T02:41:52.820Z,14.13
2022-11-03T02:44:20.795Z,9.20
2022-11-03T02:46:52.719Z,8.17
2022-11-03T02:49:19.516Z,8.60
2022-11-03T02:51:46.348Z,10.33
2022-11-03T02:54:22.296Z,14.57
2022-11-03T02:57:06.591Z,9.27
2022-11-03T02:59:43.055Z,12.73
2022-11-03T03:02:15.883Z,11.33
2022-11-03T03:04:53.661Z,11.80
2022-11-03T03:07:27.185Z,12.33
2022-11-03T03:09:59.803Z,8.70
2022-11-03T03:12:27.443Z,12.73
2022-11-03T03:14:58.305Z,12.52
2022-11-03T03:17:52.666Z,17.80
2022-11-03T03:20:40.320Z,13.27
2022-11-03T03:23:19.227Z,9.93
2022-11-03T03:25:53.442Z,10.13
2022-11-03T03:28:26.199Z,11.30
2022-11-03T03:30:58.031Z,11.40
2022-11-03T03:36:01.752Z,8.10
2022-11-03T03:38:37.081Z,11.80
2022-11-03T03:41:10.408Z,9.27
2022-11-03T03:43:38.146Z,8.30
2022-11-03T03:46:10.247Z,10.38
2022-11-03T03:48:37.538Z,15.63
2022-11-03T03:51:06.649Z,13.77
2022-11-03T03:53:33.572Z,10.98
2022-11-03T03:56:00.527Z,8.90
2022-11-03T03:58:27.336Z,10.43
2022-11-03T04:00:54.418Z,12.45
2022-11-03T04:03:23.782Z,12.52
2022-11-03T04:05:51.636Z,13.25
2022-11-03T04:08:18.634Z,7.93
2022-11-03T04:11:05.067Z,15.90
2022-11-03T04:13:51.806Z,7.60
2022-11-03T04:16:37.760Z,12.13
2022-11-03T04:19:23.142Z,13.50
2022-11-03T04:22:08.492Z,11.65
2022-11-03T04:24:35.347Z,10.13
2022-11-03T04:27:16.872Z,12.60
2022-11-03T04:29:43.875Z,8.98
2022-11-03T04:32:17.231Z,23.02
2022-11-03T04:34:47.220Z,7.70
2022-11-03T04:37:14.556Z,10.48
2022-11-03T04:39:41.970Z,14.13
2022-11-03T04:42:21.159Z,8.63
2022-11-03T04:44:49.218Z,14.20
2022-11-03T04:47:17.840Z,12.45
2022-11-03T04:49:46.851Z,9.23
2022-11-03T04:52:21.945Z,9.45
2022-11-03T04:54:53.004Z,11.73
2022-11-03T04:57:20.131Z,15.25
2022-11-03T04:59:51.161Z,11.37
2022-11-03T05:02:20.257Z,10.63
2022-11-03T05:04:47.321Z,14.38
2022-11-03T05:07:30.966Z,14.48
2022-11-03T05:09:58.137Z,8.63
2022-11-03T05:12:25.662Z,14.18
2022-11-03T05:14:58.022Z,6.03
2022-11-03T05:17:27.759Z,11.63
2022-11-03T05:20:01.390Z,12.77
2022-11-03T05:22:37.141Z,10.38
2022-11-03T05:25:35.563Z,9.73
2022-11-03T05:28:03.292Z,9.52
2022-11-03T05:30:30.828Z,10.93
2022-11-03T05:32:58.375Z,11.60
2022-11-03T05:35:25.287Z,11.75
2022-11-03T05:37:52.323Z,10.82
2022-11-03T05:40:25.522Z,9.73
2022-11-03T05:42:57.550Z,12.23
2022-11-03T05:45:31.111Z,6.85
2022-11-03T05:47:58.869Z,10.35
2022-11-03T05:50:28.828Z,13.80
2022-11-03T05:52:59.232Z,6.25
2022-11-03T05:55:30.480Z,10.00
2022-11-03T05:58:00.252Z,7.63
2022-11-03T06:00:41.885Z,14.10
2022-11-03T06:03:21.604Z,9.75
2022-11-03T06:05:48.501Z,11.13
2022-11-03T06:08:20.668Z,8.35
2022-11-03T06:10:51.330Z,6.40
2022-11-03T06:13:26.819Z,6.38
2022-11-03T06:16:25.521Z,8.95
2022-11-03T06:18:52.343Z,12.65
2022-11-03T06:21:25.857Z,7.85
2022-11-03T06:23:54.863Z,9.35
2022-11-03T06:26:25.618Z,9.63
2022-11-03T06:28:53.099Z,10.48
2022-11-03T06:31:32.757Z,5.77
2022-11-03T06:33:59.604Z,14.52
2022-11-03T06:36:35.274Z,6.90
2022-11-03T06:39:32.086Z,8.77
2022-11-03T06:41:58.914Z,7.28
2022-11-03T06:44:28.423Z,12.18
2022-11-03T06:46:59.987Z,13.98
2022-11-03T06:49:35.105Z,10.00
2022-11-03T06:52:30.938Z,6.80
2022-11-03T06:55:12.171Z,12.20
2022-11-03T06:57:44.518Z,10.27
2022-11-03T07:00:41.085Z,9.65
2022-11-03T07:03:18.541Z,7.33
2022-11-03T07:05:45.531Z,6.97
2022-11-03T07:08:32.866Z,18.23
2022-11-03T07:11:19.854Z,10.05
2022-11-03T07:13:53.628Z,12.35
2022-11-03T07:16:35.137Z,7.32
2022-11-03T07:19:05.981Z,13.15
2022-11-03T07:21:45.342Z,7.57
2022-11-03T07:24:36.486Z,15.38
2022-11-03T07:27:16.349Z,10.30
2022-11-03T07:29:44.843Z,5.13
2022-11-03T07:32:23.963Z,13.90
2022-11-03T07:34:53.683Z,12.13
2022-11-03T07:37:24.389Z,13.73
2022-11-03T07:39:53.095Z,25.10
2022-11-03T07:42:23.284Z,13.90
2022-11-03T07:44:50.695Z,14.10
2022-11-03T07:47:26.086Z,12.47
2022-11-03T07:49:55.109Z,22.08
2022-11-03T07:52:24.823Z,15.48
2022-11-03T07:54:55.053Z,12.73
2022-11-03T07:57:32.092Z,7.80
2022-11-03T08:00:08.823Z,7.63
2022-11-03T08:02:46.813Z,14.43
2022-11-03T08:05:13.883Z,9.40
2022-11-03T08:07:40.716Z,11.47
2022-11-03T08:10:07.974Z,12.47
2022-11-03T08:12:34.772Z,8.05
2022-11-03T08:15:01.671Z,15.27
2022-11-03T08:17:28.483Z,7.70
2022-11-03T08:19:55.331Z,17.53
2022-11-03T08:22:25.867Z,10.53
2022-11-03T08:24:53.226Z,10.73
2022-11-03T08:27:20.127Z,10.33
2022-11-03T08:29:47.191Z,14.90
2022-11-03T08:32:14.095Z,8.45
2022-11-03T08:34:40.983Z,11.07
2022-11-03T08:37:07.788Z,12.67
2022-11-03T08:39:36.265Z,8.63
2022-11-03T08:42:03.188Z,9.50
2022-11-03T08:44:30.050Z,19.77
2022-11-03T08:46:57.023Z,12.40
2022-11-03T08:49:23.968Z,11.27
2022-11-03T08:51:50.803Z,12.63
2022-11-03T08:54:17.633Z,7.93
2022-11-03T08:56:46.585Z,7.97
2022-11-03T08:59:13.676Z,8.93
2022-11-03T09:01:40.631Z,8.95
2022-11-03T09:04:07.819Z,11.10
2022-11-03T09:06:34.697Z,4.33
2022-11-03T09:11:48.495Z,11.77
2022-11-03T09:14:16.048Z,12.90
2022-11-03T09:16:42.970Z,10.10
2022-11-03T09:19:09.772Z,20.70
2022-11-03T09:21:36.577Z,15.77
2022-11-03T09:24:03.466Z,18.37
2022-11-03T09:26:30.391Z,12.53
2022-11-03T09:28:57.165Z,8.57
2022-11-03T09:31:28.348Z,11.00
2022-11-03T09:33:55.277Z,7.73
2022-11-03T09:36:22.135Z,6.90
2022-11-03T09:38:49.009Z,8.90
2022-11-03T09:41:26.215Z,11.03
2022-11-03T09:43:56.699Z,5.10
2022-11-03T09:46:23.856Z,9.93
2022-11-03T09:48:50.861Z,9.27
2022-11-03T09:51:20.916Z,6.00
2022-11-03T09:53:48.450Z,7.53
2022-11-03T09:56:19.110Z,8.97
2022-11-03T09:58:51.273Z,6.33
2022-11-03T10:01:21.010Z,6.67
2022-11-03T10:03:48.265Z,8.50
2022-11-03T10:06:17.187Z,8.03
2022-11-03T10:08:46.347Z,10.90
2022-11-03T10:11:13.773Z,14.70
2022-11-03T10:13:43.732Z,4.13
2022-11-03T10:16:14.935Z,7.80
2022-11-03T10:18:42.742Z,9.27
2022-11-03T10:21:18.076Z,6.20
2022-11-03T10:23:45.012Z,6.63
2022-11-03T10:26:16.497Z,10.90
2022-11-03T10:29:03.728Z,4.80
2022-11-03T10:31:41.235Z,5.03
2022-11-03T10:34:27.025Z,4.60
2022-11-03T10:37:17.622Z,11.53
2022-11-03T10:39:45.464Z,6.37
2022-11-03T10:42:35.744Z,7.47
2022-11-03T10:45:15.512Z,8.13
2022-11-03T10:47:42.288Z,12.37
2022-11-03T10:50:26.898Z,4.60
2022-11-03T10:52:54.630Z,5.20
2022-11-03T10:55:25.268Z,8.93
2022-11-03T10:57:55.733Z,5.77
2022-11-03T11:00:24.073Z,5.00
2022-11-03T11:02:58.949Z,5.00
2022-11-03T11:05:26.452Z,7.93
2022-11-03T11:07:54.508Z,3.63
2022-11-03T11:10:27.152Z,14.60
2022-11-03T11:13:27.575Z,6.27
2022-11-03T11:16:02.072Z,5.47
2022-11-03T11:18:28.844Z,7.03
2022-11-03T11:21:15.881Z,5.97
2022-11-03T11:23:44.582Z,11.13
2022-11-03T11:26:16.039Z,7.60
2022-11-03T11:28:45.524Z,9.13
2022-11-03T11:31:29.136Z,4.43
2022-11-03T11:34:12.270Z,11.20
2022-11-03T11:36:44.936Z,11.10
2022-11-03T11:39:20.523Z,6.33
2022-11-03T11:42:18.816Z,3.50
2022-11-03T11:44:54.760Z,5.30
2022-11-03T11:47:26.045Z,6.40
2022-11-03T11:50:12.286Z,4.93
2022-11-03T11:52:50.396Z,3.80
2022-11-03T11:55:38.657Z,6.57
2022-11-03T11:58:14.112Z,4.63
2022-11-03T12:00:52.965Z,8.70
2022-11-03T12:03:32.366Z,3.80
2022-11-03T12:05:59.244Z,2.80
2022-11-03T12:08:29.810Z,6.27
2022-11-03T12:10:59.142Z,7.73
2022-11-03T12:13:49.363Z,3.50
2022-11-03T12:16:33.074Z,2.53
2022-11-03T12:19:37.354Z,8.23
2022-11-03T12:22:06.629Z,22.77
2022-11-03T12:24:33.399Z,6.17
2022-11-03T12:27:01.170Z,9.47
2022-11-03T12:29:31.097Z,3.60
2022-11-03T12:31:57.853Z,5.20
2022-11-03T12:34:24.695Z,5.10
2022-11-03T12:36:55.945Z,5.77
2022-11-03T12:39:23.185Z,9.40
2022-11-03T12:41:49.979Z,4.73
2022-11-03T12:44:16.962Z,14.03
2022-11-03T12:46:43.823Z,7.83
2022-11-03T12:49:10.636Z,11.30
2022-11-03T12:51:37.511Z,7.90
2022-11-03T12:54:04.442Z,9.33
2022-11-03T12:56:31.224Z,7.90
2022-11-03T12:58:57.976Z,6.97
2022-11-03T13:01:25.269Z,8.30
2022-11-03T13:03:52.185Z,5.47
2022-11-03T13:06:18.971Z,6.73
2022-11-03T13:08:47.879Z,15.33
2022-11-03T13:11:36.249Z,4.33
2022-11-03T13:14:04.982Z,8.77
2022-11-03T13:16:32.220Z,5.40
2022-11-03T13:18:59.009Z,19.60
2022-11-03T13:21:25.900Z,5.33
2022-11-03T13:23:53.431Z,13.33
2022-11-03T13:26:20.288Z,4.03
2022-11-03T13:28:47.638Z,8.17
2022-11-03T13:31:14.390Z,18.57
2022-11-03T13:33:41.158Z,10.57
2022-11-03T13:36:08.265Z,9.90
2022-11-03T13:38:35.104Z,5.33
2022-11-03T13:41:08.135Z,11.93
2022-11-03T13:43:35.988Z,6.33
2022-11-03T13:46:03.968Z,5.00
2022-11-03T13:49:31.767Z,3.47
2022-11-03T13:51:19.099Z,1.60
2022-11-03T13:59:27.498Z,9.20
2022-11-03T14:04:42.216Z,7.90
2022-11-03T14:07:10.002Z,9.50
2022-11-03T14:12:22.329Z,6.80
2022-11-03T14:14:49.077Z,3.67
2022-11-03T14:17:16.013Z,3.07
2022-11-03T14:19:46.171Z,2.70
2022-11-03T14:22:15.705Z,7.33
2022-11-03T14:24:42.603Z,5.97
2022-11-03T14:27:09.480Z,6.70
2022-11-03T14:29:36.357Z,5.67
2022-11-03T14:32:03.214Z,4.03
2022-11-03T14:34:30.034Z,9.50
2022-11-03T14:36:57.079Z,6.97
2022-11-03T14:39:23.872Z,7.20
2022-11-03T14:42:05.987Z,10.43
2022-11-03T14:44:37.040Z,21.67
2022-11-03T14:47:06.020Z,6.47
2022-11-03T14:49:34.312Z,2.83
2022-11-03T14:52:02.380Z,6.23
2022-11-03T14:54:30.642Z,3.23
2022-11-03T14:56:58.176Z,19.30
2022-11-03T14:59:25.789Z,8.57
2022-11-03T15:01:53.556Z,2.80
2022-11-03T15:04:21.395Z,19.63
2022-11-03T15:06:49.040Z,4.87
2022-11-03T15:09:15.942Z,6.43
2022-11-03T15:11:43.871Z,6.23
2022-11-03T15:14:11.965Z,4.30
2022-11-03T15:16:39.240Z,4.87
2022-11-03T15:19:07.163Z,5.07
2022-11-03T15:21:34.000Z,2.53
2022-11-03T15:26:48.041Z,4.30
2022-11-03T15:29:14.907Z,9.63
2022-11-03T15:31:46.390Z,5.93
2022-11-03T15:34:15.405Z,14.17
2022-11-03T15:36:42.473Z,15.00
2022-11-03T15:39:09.593Z,11.77
2022-11-03T15:41:36.407Z,8.30
2022-11-03T15:44:03.377Z,7.57
2022-11-03T15:46:30.187Z,4.70
2022-11-03T15:48:57.783Z,5.03
2022-11-03T15:51:25.368Z,7.53
2022-11-03T15:53:57.924Z,5.10
2022-11-03T15:56:25.795Z,4.70
2022-11-03T15:58:52.570Z,3.97
2022-11-03T16:01:19.418Z,8.20
2022-11-03T16:03:46.336Z,4.30
2022-11-03T16:06:13.166Z,7.07
2022-11-03T16:08:40.030Z,2.53
2022-11-03T16:11:07.141Z,6.43
2022-11-03T16:13:33.939Z,9.48
2022-11-03T16:16:00.706Z,11.13
2022-11-03T16:18:27.594Z,5.40
2022-11-03T16:20:54.354Z,5.27
2022-11-03T16:23:21.181Z,5.40
2022-11-03T16:25:47.936Z,11.35
2022-11-03T16:28:14.703Z,5.07
2022-11-03T16:30:41.599Z,25.67
2022-11-03T16:33:08.883Z,10.70
2022-11-03T16:35:35.674Z,9.82
2022-11-03T16:38:02.507Z,6.57
2022-11-03T16:40:29.478Z,10.00
2022-11-03T16:42:56.228Z,10.57
2022-11-03T16:45:26.626Z,8.35
2022-11-03T16:47:54.116Z,9.07
2022-11-03T16:50:20.916Z,3.13
2022-11-03T16:52:49.395Z,4.25
2022-11-03T16:55:17.704Z,8.20
2022-11-03T16:57:45.619Z,6.37
2022-11-03T17:00:15.721Z,14.87
2022-11-03T17:02:42.675Z,9.13
2022-11-03T17:05:10.399Z,11.95
2022-11-03T17:07:37.235Z,10.00
2022-11-03T17:10:05.866Z,10.18
2022-11-03T17:12:32.723Z,13.68
2022-11-03T17:14:59.618Z,14.23
2022-11-03T17:17:26.457Z,24.10
2022-11-03T17:19:53.359Z,22.03
2022-11-03T17:22:22.860Z,25.43
2022-11-03T17:24:50.463Z,18.60
2022-11-03T17:27:25.578Z,23.73
2022-11-03T17:30:09.019Z,38.47
2022-11-03T17:32:41.854Z,37.63
2022-11-03T17:35:18.937Z,37.42
2022-11-03T17:37:45.782Z,29.42
2022-11-03T17:40:21.735Z,20.90
2022-11-03T17:42:49.428Z,33.00
2022-11-03T17:45:18.580Z,27.75
2022-11-03T17:47:45.589Z,22.70
2022-11-03T17:50:17.959Z,20.63
2022-11-03T17:52:46.586Z,23.23
2022-11-03T17:55:25.310Z,22.10
2022-11-03T17:57:52.400Z,25.03
2022-11-03T18:00:21.020Z,29.48
2022-11-03T18:02:50.575Z,24.63
2022-11-03T18:05:20.443Z,31.08
2022-11-03T18:07:49.591Z,30.73
2022-11-03T18:10:16.565Z,56.20
2022-11-03T18:13:05.079Z,19.92
2022-11-03T18:15:33.590Z,30.70
2022-11-03T18:18:01.648Z,26.08
2022-11-03T18:20:29.976Z,32.72
2022-11-03T18:23:15.683Z,22.92
2022-11-03T18:25:42.707Z,23.25
2022-11-03T18:28:09.716Z,22.60
2022-11-03T18:30:37.713Z,23.20
2022-11-03T18:33:05.067Z,26.83
2022-11-03T18:35:34.348Z,43.25
2022-11-03T18:38:01.326Z,27.17
2022-11-03T18:40:30.500Z,25.13
2022-11-03T18:42:57.439Z,22.15
2022-11-03T18:45:24.223Z,33.63
2022-11-03T18:47:52.096Z,28.60
2022-11-03T18:50:19.093Z,21.27
2022-11-03T18:52:48.103Z,37.03
2022-11-03T18:55:17.047Z,23.90
2022-11-03T18:57:44.423Z,27.67
2022-11-03T19:00:16.326Z,23.92
2022-11-03T19:02:43.158Z,30.73
2022-11-03T19:05:13.702Z,30.52
2022-11-03T19:07:42.648Z,26.10
2022-11-03T19:10:21.015Z,21.90
2022-11-03T19:12:48.229Z,21.80
2022-11-03T19:15:23.889Z,26.05
2022-11-03T19:17:56.962Z,23.60
2022-11-03T19:20:25.516Z,22.10
2022-11-03T19:22:52.831Z,22.65
2022-11-03T19:25:19.694Z,27.50
2022-11-03T19:27:49.076Z,24.95
2022-11-03T19:30:18.549Z,32.90
2022-11-03T19:32:51.166Z,28.60
2022-11-03T19:35:30.029Z,23.92
2022-11-03T19:38:13.013Z,28.95
2022-11-03T19:41:00.794Z,27.75
2022-11-03T19:43:33.314Z,22.17
2022-11-03T19:46:01.466Z,23.67
2022-11-03T19:48:33.175Z,23.55
2022-11-03T19:51:00.038Z,27.95
2022-11-03T19:53:29.077Z,23.35
2022-11-03T19:55:56.515Z,27.88
2022-11-03T19:58:28.102Z,22.60
2022-11-03T20:00:55.369Z,20.77
2022-11-03T20:03:23.389Z,28.02
2022-11-03T20:05:56.892Z,22.15
2022-11-03T20:08:26.128Z,24.10
2022-11-03T20:10:53.652Z,27.35
2022-11-03T20:13:23.801Z,22.42
2022-11-03T20:15:57.355Z,31.35
2022-11-03T20:18:26.420Z,16.73
2022-11-03T20:20:54.084Z,39.50
2022-11-03T20:23:33.030Z,26.25
2022-11-03T20:26:01.278Z,26.70
2022-11-03T20:28:35.802Z,22.98
2022-11-03T20:31:04.284Z,23.83
2022-11-03T20:33:33.474Z,24.13
2022-11-03T20:36:02.237Z,19.98
2022-11-03T20:38:29.335Z,22.73
2022-11-03T20:41:00.355Z,22.58
2022-11-03T20:43:40.093Z,25.75
2022-11-03T20:46:31.316Z,23.80
2022-11-03T20:48:58.413Z,30.27
2022-11-03T20:51:33.740Z,19.63
2022-11-03T20:54:02.515Z,26.52
2022-11-03T20:56:29.950Z,29.67
2022-11-03T20:58:57.961Z,23.85
2022-11-03T21:01:30.867Z,28.08
2022-11-03T21:04:00.326Z,25.10
2022-11-03T21:06:30.310Z,29.02
2022-11-03T21:08:57.715Z,23.17
2022-11-03T21:11:28.016Z,31.13
2022-11-03T21:14:08.482Z,26.77
2022-11-03T21:16:53.754Z,26.27
2022-11-03T21:19:40.506Z,38.33
2022-11-03T21:22:54.179Z,22.98
2022-11-03T21:25:23.384Z,23.33
2022-11-03T21:27:50.741Z,33.05
2022-11-03T21:30:18.329Z,22.13
2022-11-03T21:32:45.501Z,25.20
2022-11-03T21:35:19.489Z,34.42
2022-11-03T21:37:47.105Z,18.75
2022-11-03T21:40:14.039Z,20.63
2022-11-03T21:42:59.293Z,28.90
2022-11-03T21:45:26.477Z,22.88
2022-11-03T21:48:14.088Z,32.22
2022-11-03T21:50:41.995Z,26.08
2022-11-03T21:53:09.356Z,27.10
2022-11-03T21:55:36.699Z,22.30
2022-11-03T21:58:04.353Z,30.80
2022-11-03T22:00:31.561Z,32.72
2022-11-03T22:02:59.329Z,23.23
2022-11-03T22:05:26.636Z,21.33
2022-11-03T22:07:53.632Z,16.60
2022-11-03T22:10:20.666Z,31.23
2022-11-03T22:12:54.506Z,30.83
2022-11-03T22:15:39.647Z,29.67
2022-11-03T22:18:07.297Z,25.40
2022-11-03T22:20:55.633Z,33.97
2022-11-03T22:23:40.999Z,21.70
2022-11-03T22:26:31.467Z,24.98
2022-11-03T22:29:28.697Z,17.70
2022-11-03T22:31:55.516Z,29.55
2022-11-03T22:34:41.159Z,22.23
2022-11-03T22:37:08.062Z,19.33
2022-11-03T22:39:53.828Z,19.77
2022-11-03T22:42:39.304Z,22.88
2022-11-03T22:45:25.332Z,22.15
2022-11-03T22:47:57.262Z,17.63
2022-11-03T22:50:24.462Z,20.02
2022-11-03T22:52:51.557Z,22.23
2022-11-03T22:55:18.421Z,17.02
2022-11-03T22:57:45.202Z,26.92
2022-11-03T23:00:13.539Z,16.58
2022-11-03T23:02:40.659Z,17.40
2022-11-03T23:05:07.927Z,24.48
2022-11-03T23:07:40.831Z,21.58
2022-11-03T23:10:08.781Z,26.58
2022-11-03T23:12:35.616Z,17.33
2022-11-03T23:15:20.992Z,19.90
2022-11-03T23:18:08.033Z,20.77
2022-11-03T23:20:56.741Z,24.67
2022-11-03T23:23:42.198Z,22.42
2022-11-03T23:26:09.513Z,20.35
2022-11-03T23:28:36.370Z,14.52
2022-11-03T23:31:03.183Z,24.42
2022-11-03T23:33:31.122Z,17.95
2022-11-03T23:35:58.247Z,17.77
2022-11-03T23:38:25.043Z,16.35
2022-11-03T23:40:51.955Z,22.23
2022-11-03T23:43:18.730Z,15.07
2022-11-03T23:46:04.006Z,16.60
2022-11-03T23:48:46.000Z,17.87
2022-11-03T23:51:21.143Z,18.67
2022-11-03T23:53:48.203Z,19.00
2022-11-03T23:56:36.079Z,20.50
2022-11-03T23:59:03.850Z,14.93
